createdAt,value
2018-11-28T00:00:34.536Z,15.27
2018-11-28T00:03:03.683Z,16.35
2018-11-28T00:05:31.700Z,18.60
2018-11-28T00:07:59.730Z,15.50
2018-11-28T00:10:29.036Z,12.43
2018-11-28T00:12:57.088Z,16.97
2018-11-28T00:15:26.854Z,16.05
2018-11-28T00:17:57.169Z,11.53
2018-11-28T00:20:26.766Z,19.07
2018-11-28T00:22:54.964Z,11.23
2018-11-28T00:25:23.568Z,17.70
2018-11-28T00:27:51.667Z,16.30
2018-11-28T00:30:20.766Z,12.57
2018-11-28T00:32:48.805Z,16.67
2018-11-28T00:35:20.617Z,13.02
2018-11-28T00:37:48.700Z,13.80
2018-11-28T00:40:18.899Z,18.00
2018-11-28T00:42:46.936Z,16.77
2018-11-28T00:45:16.949Z,17.20
2018-11-28T00:47:46.653Z,13.20
2018-11-28T00:50:18.285Z,19.75
2018-11-28T00:52:48.028Z,17.23
2018-11-28T00:55:16.526Z,18.47
2018-11-28T00:57:46.269Z,22.27
2018-11-28T01:00:17.493Z,20.48
2018-11-28T01:02:45.580Z,17.40
2018-11-28T01:05:13.758Z,22.47
2018-11-28T01:07:43.494Z,18.02
2018-11-28T01:10:14.941Z,18.83
2018-11-28T01:12:44.511Z,19.97
2018-11-28T01:15:13.664Z,11.97
2018-11-28T01:17:42.378Z,16.77
2018-11-28T01:20:15.552Z,16.77
2018-11-28T01:22:43.620Z,17.60
2018-11-28T01:25:14.943Z,23.50
2018-11-28T01:27:42.926Z,21.70
2018-11-28T01:30:16.143Z,16.77
2018-11-28T01:32:44.251Z,14.67
2018-11-28T01:35:16.190Z,13.87
2018-11-28T01:37:45.981Z,13.37
2018-11-28T01:40:17.006Z,18.77
2018-11-28T01:42:46.578Z,18.50
2018-11-28T01:45:16.783Z,14.20
2018-11-28T01:47:44.893Z,13.73
2018-11-28T01:50:14.872Z,13.03
2018-11-28T01:52:43.158Z,13.67
2018-11-28T01:55:21.352Z,21.47
2018-11-28T01:57:50.873Z,19.27
2018-11-28T02:00:19.460Z,19.23
2018-11-28T02:02:49.488Z,16.37
2018-11-28T02:05:18.973Z,19.47
2018-11-28T02:07:48.169Z,15.53
2018-11-28T02:10:18.451Z,19.87
2018-11-28T02:12:47.283Z,17.47
2018-11-28T02:15:15.863Z,16.33
2018-11-28T02:17:43.989Z,13.00
2018-11-28T02:20:14.265Z,17.60
2018-11-28T02:22:44.019Z,18.70
2018-11-28T02:25:14.570Z,22.53
2018-11-28T02:27:42.627Z,21.37
2018-11-28T02:30:16.947Z,14.10
2018-11-28T02:32:45.237Z,20.50
2018-11-28T02:35:13.910Z,16.67
2018-11-28T02:37:42.228Z,17.77
2018-11-28T02:40:16.543Z,14.87
2018-11-28T02:42:46.463Z,18.45
2018-11-28T02:45:16.319Z,16.80
2018-11-28T02:47:44.509Z,16.20
2018-11-28T02:50:14.524Z,20.63
2018-11-28T02:52:43.235Z,15.90
2018-11-28T02:55:13.366Z,18.37
2018-11-28T02:57:43.442Z,16.12
2018-11-28T03:00:12.278Z,21.50
2018-11-28T03:02:41.895Z,14.53
2018-11-28T03:05:10.748Z,20.57
2018-11-28T03:07:38.558Z,20.50
2018-11-28T03:10:11.620Z,16.35
2018-11-28T03:12:41.787Z,17.93
2018-11-28T03:15:15.290Z,21.47
2018-11-28T03:17:45.026Z,15.37
2018-11-28T03:20:13.273Z,18.20
2018-11-28T03:22:43.054Z,21.33
2018-11-28T03:25:12.745Z,15.50
2018-11-28T03:27:43.155Z,17.63
2018-11-28T03:30:13.941Z,17.27
2018-11-28T03:32:41.972Z,19.73
2018-11-28T03:35:12.796Z,16.53
2018-11-28T03:37:40.789Z,15.48
2018-11-28T03:40:10.258Z,26.67
2018-11-28T03:42:38.269Z,22.23
2018-11-28T03:45:10.316Z,22.65
2018-11-28T03:47:38.522Z,16.43
2018-11-28T03:50:07.398Z,23.95
2018-11-28T03:52:37.157Z,26.83
2018-11-28T03:55:07.235Z,24.57
2018-11-28T03:57:36.643Z,20.47
2018-11-28T04:00:07.346Z,20.30
2018-11-28T04:02:37.045Z,17.97
2018-11-28T04:05:06.818Z,20.37
2018-11-28T04:07:34.924Z,19.58
2018-11-28T04:10:02.396Z,20.77
2018-11-28T04:12:31.718Z,18.57
2018-11-28T04:15:01.948Z,17.83
2018-11-28T04:17:31.447Z,19.30
2018-11-28T04:19:59.593Z,24.07
2018-11-28T04:22:29.103Z,23.23
2018-11-28T04:24:58.734Z,19.67
2018-11-28T04:27:28.258Z,22.13
2018-11-28T04:29:56.284Z,20.03
2018-11-28T04:32:25.589Z,23.97
2018-11-28T04:34:55.133Z,19.73
2018-11-28T04:37:24.807Z,28.53
2018-11-28T04:39:52.833Z,20.10
2018-11-28T04:42:22.523Z,25.42
2018-11-28T04:44:50.331Z,20.73
2018-11-28T04:47:18.876Z,29.23
2018-11-28T04:49:47.578Z,22.10
2018-11-28T04:52:15.326Z,21.65
2018-11-28T04:54:43.307Z,23.38
2018-11-28T04:57:11.491Z,19.50
2018-11-28T04:59:41.165Z,31.52
2018-11-28T05:02:09.084Z,24.65
2018-11-28T05:04:36.575Z,12.90
2018-11-28T05:07:25.339Z,22.92
2018-11-28T05:09:53.382Z,20.12
2018-11-28T05:12:21.459Z,21.30
2018-11-28T05:14:49.477Z,15.43
2018-11-28T05:17:20.164Z,19.20
2018-11-28T05:19:51.026Z,21.65
2018-11-28T05:22:19.694Z,22.77
2018-11-28T05:24:47.867Z,27.13
2018-11-28T05:27:17.493Z,19.70
2018-11-28T05:29:45.566Z,24.23
2018-11-28T05:32:15.161Z,21.15
2018-11-28T05:34:44.888Z,25.77
2018-11-28T05:37:12.960Z,21.92
2018-11-28T05:39:41.589Z,29.95
2018-11-28T05:42:11.132Z,21.10
2018-11-28T05:44:39.133Z,26.55
2018-11-28T05:47:07.206Z,25.27
2018-11-28T05:49:34.909Z,18.15
2018-11-28T05:52:04.560Z,18.42
2018-11-28T05:54:32.530Z,19.33
2018-11-28T05:57:02.208Z,16.15
2018-11-28T05:59:31.944Z,25.12
2018-11-28T06:02:01.779Z,20.48
2018-11-28T06:04:29.900Z,20.80
2018-11-28T06:06:57.908Z,21.42
2018-11-28T06:09:26.038Z,26.33
2018-11-28T06:11:55.756Z,24.63
2018-11-28T06:14:23.516Z,19.55
2018-11-28T06:16:52.276Z,28.00
2018-11-28T06:19:20.323Z,16.65
2018-11-28T06:21:49.040Z,19.42
2018-11-28T06:24:17.072Z,20.15
2018-11-28T06:26:45.060Z,20.80
2018-11-28T06:29:14.646Z,21.12
2018-11-28T06:31:44.353Z,19.60
2018-11-28T06:34:12.369Z,20.75
2018-11-28T06:36:40.369Z,29.23
2018-11-28T06:39:09.595Z,25.15
2018-11-28T06:41:37.724Z,31.33
2018-11-28T06:44:06.291Z,17.33
2018-11-28T06:46:34.487Z,22.05
2018-11-28T06:49:02.572Z,21.37
2018-11-28T06:51:30.278Z,16.70
2018-11-28T06:53:58.315Z,25.20
2018-11-28T06:56:26.316Z,16.27
2018-11-28T06:58:54.336Z,30.33
2018-11-28T07:01:22.372Z,18.57
2018-11-28T07:03:50.210Z,22.75
2018-11-28T07:06:18.342Z,14.77
2018-11-28T07:08:47.961Z,24.42
2018-11-28T07:11:15.958Z,22.87
2018-11-28T07:13:44.009Z,24.25
2018-11-28T07:16:12.022Z,24.60
2018-11-28T07:18:58.026Z,24.00
2018-11-28T07:21:27.639Z,21.77
2018-11-28T07:23:55.427Z,23.43
2018-11-28T07:26:23.427Z,26.47
2018-11-28T07:28:51.478Z,17.02
2018-11-28T07:31:19.452Z,22.87
2018-11-28T07:33:47.993Z,14.70
2018-11-28T07:36:17.672Z,17.00
2018-11-28T07:38:46.951Z,24.05
2018-11-28T07:41:14.956Z,21.80
2018-11-28T07:43:44.746Z,19.10
2018-11-28T07:46:13.304Z,16.00
2018-11-28T07:48:41.357Z,22.62
2018-11-28T07:51:10.178Z,18.15
2018-11-28T07:53:38.169Z,20.92
2018-11-28T07:56:06.309Z,24.87
2018-11-28T07:58:34.437Z,26.00
2018-11-28T08:01:02.521Z,18.20
2018-11-28T08:03:32.162Z,24.83
2018-11-28T08:06:00.264Z,27.50
2018-11-28T08:08:29.534Z,23.43
2018-11-28T08:10:57.567Z,17.42
2018-11-28T08:13:26.411Z,26.95
2018-11-28T08:15:53.652Z,22.30
2018-11-28T08:18:23.265Z,22.80
2018-11-28T08:20:52.852Z,26.23
2018-11-28T08:23:21.600Z,21.48
2018-11-28T08:25:51.364Z,15.98
2018-11-28T08:28:20.006Z,29.85
2018-11-28T08:30:48.091Z,21.90
2018-11-28T08:33:17.540Z,24.20
2018-11-28T08:35:47.804Z,18.17
2018-11-28T08:38:15.483Z,28.60
2018-11-28T08:40:43.444Z,24.37
2018-11-28T08:43:11.521Z,26.85
2018-11-28T08:45:41.136Z,23.87
2018-11-28T08:48:09.099Z,28.60
2018-11-28T08:50:37.714Z,18.98
2018-11-28T08:53:07.811Z,23.67
2018-11-28T08:55:35.832Z,32.90
2018-11-28T08:58:03.940Z,24.40
2018-11-28T09:00:31.959Z,21.95
2018-11-28T09:02:59.965Z,26.73
2018-11-28T09:05:29.520Z,27.42
2018-11-28T09:07:58.921Z,24.73
2018-11-28T09:10:28.923Z,26.60
2018-11-28T09:13:03.564Z,19.12
2018-11-28T09:15:28.756Z,21.77
2018-11-28T09:17:56.967Z,22.75
2018-11-28T09:20:26.322Z,18.60
2018-11-28T09:22:55.503Z,26.52
2018-11-28T09:25:27.788Z,24.48
2018-11-28T09:28:09.636Z,29.27
2018-11-28T09:30:38.079Z,20.55
2018-11-28T09:33:08.685Z,19.27
2018-11-28T09:35:36.490Z,22.62
2018-11-28T09:38:06.537Z,20.12
2018-11-28T09:40:35.343Z,22.52
2018-11-28T09:43:04.725Z,20.17
2018-11-28T09:45:32.763Z,12.30
2018-11-28T09:48:02.853Z,25.55
2018-11-28T09:50:32.922Z,22.20
2018-11-28T09:53:03.823Z,17.00
2018-11-28T09:55:33.259Z,19.83
2018-11-28T09:58:04.110Z,24.63
2018-11-28T10:00:34.872Z,25.37
2018-11-28T10:03:03.165Z,22.55
2018-11-28T10:05:35.004Z,22.37
2018-11-28T10:08:05.288Z,21.42
2018-11-28T10:10:34.689Z,24.52
2018-11-28T10:13:04.196Z,25.90
2018-11-28T10:15:35.714Z,22.67
2018-11-28T10:18:04.790Z,27.15
2018-11-28T10:20:33.050Z,26.85
2018-11-28T10:23:03.477Z,21.00
2018-11-28T10:25:32.743Z,24.77
2018-11-28T10:28:07.366Z,22.48
2018-11-28T10:30:40.194Z,19.42
2018-11-28T10:33:11.494Z,20.80
2018-11-28T10:35:42.391Z,26.83
2018-11-28T10:38:11.363Z,22.35
2018-11-28T10:40:39.372Z,24.12
2018-11-28T10:43:09.485Z,17.48
2018-11-28T10:45:38.633Z,24.87
2018-11-28T10:48:08.095Z,21.20
2018-11-28T10:50:37.316Z,17.50
2018-11-28T10:53:05.680Z,21.33
2018-11-28T10:55:35.601Z,19.98
2018-11-28T10:58:04.931Z,16.65
2018-11-28T11:00:50.768Z,17.75
2018-11-28T11:03:37.269Z,20.17
2018-11-28T11:06:24.151Z,16.45
2018-11-28T11:09:09.980Z,24.17
2018-11-28T11:11:56.687Z,24.52
2018-11-28T11:14:42.048Z,28.00
2018-11-28T11:17:11.057Z,20.85
2018-11-28T11:19:38.890Z,21.00
2018-11-28T11:22:07.716Z,31.30
2018-11-28T11:24:37.571Z,29.63
2018-11-28T11:27:08.955Z,27.92
2018-11-28T11:29:37.735Z,21.60
2018-11-28T11:32:07.664Z,26.62
2018-11-28T11:34:40.976Z,21.87
2018-11-28T11:37:08.724Z,21.77
2018-11-28T11:39:38.199Z,20.33
2018-11-28T11:42:09.160Z,15.75
2018-11-28T11:44:37.586Z,22.25
2018-11-28T11:47:06.995Z,18.35
2018-11-28T11:49:37.090Z,25.95
2018-11-28T11:52:07.325Z,23.12
2018-11-28T11:54:35.717Z,22.30
2018-11-28T11:57:03.615Z,16.25
2018-11-28T11:59:33.234Z,31.75
2018-11-28T12:02:02.083Z,25.12
2018-11-28T12:04:30.090Z,17.27
2018-11-28T12:07:00.319Z,15.90
2018-11-28T12:09:30.047Z,19.12
2018-11-28T12:11:58.097Z,22.98
2018-11-28T12:14:28.283Z,22.42
2018-11-28T12:16:56.790Z,17.67
2018-11-28T12:19:28.231Z,18.58
2018-11-28T12:21:59.317Z,16.87
2018-11-28T12:24:29.001Z,18.45
2018-11-28T12:26:57.993Z,17.92
2018-11-28T12:29:27.637Z,24.83
2018-11-28T12:31:56.289Z,16.87
2018-11-28T12:34:24.472Z,20.55
2018-11-28T12:36:54.546Z,19.73
2018-11-28T12:41:53.407Z,17.30
2018-11-28T12:44:22.965Z,18.75
2018-11-28T12:46:52.871Z,12.43
2018-11-28T12:49:23.605Z,21.52
2018-11-28T12:51:52.706Z,10.57
2018-11-28T12:54:22.761Z,19.33
2018-11-28T12:56:52.676Z,13.48
2018-11-28T12:59:21.793Z,17.20
2018-11-28T13:01:53.458Z,17.40
2018-11-28T13:04:23.775Z,12.35
2018-11-28T13:06:52.763Z,13.23
2018-11-28T13:09:22.801Z,10.63
2018-11-28T13:11:52.902Z,18.03
2018-11-28T13:14:22.456Z,18.52
2018-11-28T13:16:51.076Z,13.93
2018-11-28T13:19:21.509Z,17.25
2018-11-28T13:21:50.631Z,18.12
2018-11-28T13:24:20.358Z,15.50
2018-11-28T13:26:51.587Z,10.52
2018-11-28T13:29:21.575Z,15.52
2018-11-28T13:31:49.682Z,17.98
2018-11-28T13:34:17.914Z,13.25
2018-11-28T13:36:49.860Z,13.50
2018-11-28T13:39:17.819Z,14.60
2018-11-28T13:41:46.037Z,11.98
2018-11-28T13:44:14.927Z,17.48
2018-11-28T13:46:43.802Z,13.00
2018-11-28T13:49:15.585Z,13.20
2018-11-28T13:51:45.813Z,14.65
2018-11-28T13:54:21.346Z,11.82
2018-11-28T13:57:03.937Z,12.25
2018-11-28T13:59:15.476Z,16.67
2018-11-28T14:01:45.855Z,13.77
2018-11-28T14:04:14.749Z,14.48
2018-11-28T14:06:46.544Z,13.15
2018-11-28T14:09:14.601Z,17.77
2018-11-28T14:11:44.460Z,14.32
2018-11-28T14:14:13.129Z,13.40
2018-11-28T14:16:42.810Z,9.73
2018-11-28T14:19:11.676Z,15.43
2018-11-28T14:21:40.434Z,16.73
2018-11-28T14:24:10.540Z,9.65
2018-11-28T14:26:40.733Z,16.25
2018-11-28T14:29:10.384Z,15.32
2018-11-28T14:31:38.433Z,10.88
2018-11-28T14:34:08.677Z,18.48
2018-11-28T14:36:37.378Z,16.98
2018-11-28T14:39:07.785Z,13.98
2018-11-28T14:41:37.595Z,13.30
2018-11-28T14:44:05.760Z,14.98
2018-11-28T14:46:35.801Z,13.55
2018-11-28T14:49:05.595Z,14.98
2018-11-28T14:51:34.873Z,14.25
2018-11-28T14:54:03.525Z,20.02
2018-11-28T14:56:32.609Z,13.73
2018-11-28T14:59:03.067Z,7.93
2018-11-28T15:01:31.518Z,11.30
2018-11-28T15:04:01.605Z,15.15
2018-11-28T15:07:00.156Z,14.23
2018-11-28T15:09:47.036Z,7.25
2018-11-28T15:12:17.647Z,19.52
2018-11-28T15:14:45.380Z,10.05
2018-11-28T15:17:15.834Z,16.17
2018-11-28T15:19:45.850Z,13.90
2018-11-28T15:22:13.884Z,16.60
2018-11-28T15:24:42.123Z,14.15
2018-11-28T15:27:10.924Z,11.25
2018-11-28T15:29:40.710Z,7.32
2018-11-28T15:32:09.268Z,13.65
2018-11-28T15:34:38.908Z,8.68
2018-11-28T15:37:09.444Z,8.35
2018-11-28T15:39:40.044Z,8.52
2018-11-28T15:42:08.393Z,11.95
2018-11-28T15:44:37.223Z,11.10
2018-11-28T15:47:06.083Z,10.13
2018-11-28T15:49:35.010Z,10.63
2018-11-28T15:52:03.202Z,6.43
2018-11-28T15:54:31.275Z,8.27
2018-11-28T15:57:01.517Z,10.13
2018-11-28T15:59:29.239Z,11.80
2018-11-28T16:01:59.395Z,13.15
2018-11-28T16:04:28.645Z,7.55
2018-11-28T16:06:58.164Z,7.50
2018-11-28T16:09:45.043Z,7.47
2018-11-28T16:12:14.746Z,7.45
2018-11-28T16:14:43.527Z,9.70
2018-11-28T16:17:12.654Z,12.75
2018-11-28T16:19:41.591Z,9.88
2018-11-28T16:22:11.804Z,9.05
2018-11-28T16:24:40.556Z,8.10
2018-11-28T16:27:08.586Z,10.63
2018-11-28T16:29:38.023Z,7.75
2018-11-28T16:32:06.177Z,8.85
2018-11-28T16:34:35.094Z,7.90
2018-11-28T16:37:04.640Z,8.30
2018-11-28T16:39:32.886Z,8.23
2018-11-28T16:42:02.372Z,8.52
2018-11-28T16:44:30.703Z,11.32
2018-11-28T16:46:58.324Z,6.35
2018-11-28T16:49:28.853Z,11.12
2018-11-28T16:51:58.671Z,7.07
2018-11-28T16:54:28.686Z,5.87
2018-11-28T16:56:59.375Z,8.57
2018-11-28T16:59:30.738Z,11.38
2018-11-28T17:01:58.090Z,8.50
2018-11-28T17:04:29.279Z,12.88
2018-11-28T17:06:57.690Z,9.60
2018-11-28T17:09:25.811Z,10.30
2018-11-28T17:11:54.553Z,11.55
2018-11-28T17:14:23.378Z,14.55
2018-11-28T17:16:53.772Z,12.02
2018-11-28T17:19:24.187Z,12.30
2018-11-28T17:21:52.356Z,12.20
2018-11-28T17:24:23.631Z,9.73
2018-11-28T17:26:53.459Z,14.70
2018-11-28T17:29:23.643Z,15.43
2018-11-28T17:31:54.396Z,10.98
2018-11-28T17:34:22.461Z,12.40
2018-11-28T17:36:51.602Z,13.55
2018-11-28T17:39:20.180Z,14.38
2018-11-28T17:41:50.731Z,14.65
2018-11-28T17:44:21.658Z,15.07
2018-11-28T17:46:52.182Z,12.52
2018-11-28T17:49:21.675Z,19.65
2018-11-28T17:51:52.205Z,9.75
2018-11-28T17:54:20.942Z,12.23
2018-11-28T17:56:50.615Z,13.62
2018-11-28T17:59:19.421Z,11.20
2018-11-28T18:01:49.568Z,14.07
2018-11-28T18:04:17.570Z,11.98
2018-11-28T18:06:47.514Z,12.93
2018-11-28T18:09:17.901Z,11.85
2018-11-28T18:11:48.825Z,9.52
2018-11-28T18:14:17.607Z,14.10
2018-11-28T18:16:47.349Z,8.57
2018-11-28T18:19:16.908Z,7.50
2018-11-28T18:21:45.698Z,6.45
2018-11-28T18:24:13.862Z,7.72
2018-11-28T18:26:42.292Z,7.97
2018-11-28T18:29:10.946Z,10.55
2018-11-28T18:31:39.170Z,8.93
2018-11-28T18:34:07.555Z,7.20
2018-11-28T18:36:37.202Z,8.23
2018-11-28T18:39:07.171Z,6.05
2018-11-28T18:41:36.372Z,6.15
2018-11-28T18:44:06.509Z,6.62
2018-11-28T18:46:36.603Z,7.07
2018-11-28T18:49:08.183Z,7.22
2018-11-28T18:51:37.925Z,7.90
2018-11-28T18:54:07.423Z,7.20
2018-11-28T18:56:37.511Z,7.07
2018-11-28T18:59:07.653Z,7.53
2018-11-28T19:01:37.792Z,6.60
2018-11-28T19:04:05.719Z,6.53
2018-11-28T19:06:37.759Z,5.45
2018-11-28T19:09:10.439Z,9.50
2018-11-28T19:11:38.845Z,13.18
2018-11-28T19:14:12.183Z,7.40
2018-11-28T19:16:38.108Z,8.75
2018-11-28T19:19:07.033Z,5.78
2018-11-28T19:21:37.564Z,4.12
2018-11-28T19:24:05.974Z,7.50
2018-11-28T19:26:36.435Z,5.07
2018-11-28T19:29:06.267Z,6.37
2018-11-28T19:31:36.217Z,6.10
2018-11-28T19:34:04.042Z,5.55
2018-11-28T19:36:31.897Z,5.03
2018-11-28T19:39:02.541Z,5.28
2018-11-28T19:41:31.234Z,5.70
2018-11-28T19:44:01.227Z,8.75
2018-11-28T19:46:29.256Z,5.72
2018-11-28T19:48:58.758Z,4.68
2018-11-28T19:51:28.634Z,6.50
2018-11-28T19:53:58.557Z,5.65
2018-11-28T19:56:28.356Z,7.37
2018-11-28T19:58:58.282Z,7.60
2018-11-28T20:01:29.779Z,5.93
2018-11-28T20:03:57.849Z,6.68
2018-11-28T20:06:26.088Z,6.62
2018-11-28T20:08:54.791Z,7.00
2018-11-28T20:11:26.024Z,7.20
2018-11-28T20:13:57.660Z,7.50
2018-11-28T20:16:28.196Z,11.95
2018-11-28T20:18:57.733Z,6.60
2018-11-28T20:21:26.021Z,6.75
2018-11-28T20:23:54.491Z,8.18
2018-11-28T20:26:24.996Z,8.73
2018-11-28T20:28:54.427Z,9.77
2018-11-28T20:31:24.353Z,8.25
2018-11-28T20:33:53.991Z,6.37
2018-11-28T20:36:23.563Z,5.72
2018-11-28T20:38:52.313Z,8.30
2018-11-28T20:41:20.449Z,7.60
2018-11-28T20:43:48.667Z,6.53
2018-11-28T20:46:17.064Z,6.65
2018-11-28T20:48:45.683Z,6.95
2018-11-28T20:51:16.119Z,6.30
2018-11-28T20:53:45.617Z,10.00
2018-11-28T20:56:15.246Z,8.93
2018-11-28T20:58:44.167Z,11.35
2018-11-28T21:01:14.876Z,8.73
2018-11-28T21:03:47.013Z,8.70
2018-11-28T21:06:17.029Z,8.18
2018-11-28T21:08:45.191Z,6.60
2018-11-28T21:11:16.707Z,9.10
2018-11-28T21:13:46.338Z,6.95
2018-11-28T21:16:18.001Z,5.30
2018-11-28T21:18:46.753Z,8.90
2018-11-28T21:21:18.823Z,9.27
2018-11-28T21:23:48.078Z,6.68
2018-11-28T21:26:18.121Z,6.87
2018-11-28T21:28:47.879Z,7.37
2018-11-28T21:31:15.581Z,7.75
2018-11-28T21:33:44.507Z,9.00
2018-11-28T21:36:14.320Z,5.90
2018-11-28T21:38:46.062Z,6.87
2018-11-28T21:41:14.980Z,7.72
2018-11-28T21:43:43.622Z,7.85
2018-11-28T21:46:14.724Z,7.70
2018-11-28T21:48:44.669Z,5.43
2018-11-28T21:51:12.656Z,6.15
2018-11-28T21:53:40.802Z,7.95
2018-11-28T21:56:08.756Z,7.47
2018-11-28T21:58:37.133Z,6.43
2018-11-28T22:01:06.562Z,9.02
2018-11-28T22:03:34.807Z,5.20
2018-11-28T22:06:02.992Z,9.52
2018-11-28T22:08:33.946Z,6.32
2018-11-28T22:11:02.401Z,7.22
2018-11-28T22:13:30.520Z,7.90
2018-11-28T22:15:58.498Z,6.57
2018-11-28T22:18:28.144Z,7.03
2018-11-28T22:20:57.125Z,9.50
2018-11-28T22:23:28.169Z,5.70
2018-11-28T22:25:57.531Z,6.15
2018-11-28T22:28:27.394Z,6.43
2018-11-28T22:30:55.313Z,13.62
2018-11-28T22:33:25.140Z,10.02
2018-11-28T22:35:57.653Z,5.62
2018-11-28T22:38:27.348Z,10.75
2018-11-28T22:40:56.188Z,6.25
2018-11-28T22:43:26.574Z,7.32
2018-11-28T22:45:55.517Z,5.45
2018-11-28T22:48:24.074Z,10.15
2018-11-28T22:50:52.008Z,9.18
2018-11-28T22:53:20.274Z,9.38
2018-11-28T22:55:50.571Z,11.23
2018-11-28T22:58:20.278Z,11.70
2018-11-28T23:01:09.676Z,9.20
2018-11-28T23:03:38.594Z,9.43
2018-11-28T23:06:08.591Z,10.15
2018-11-28T23:08:38.515Z,10.32
2018-11-28T23:11:07.183Z,10.13
2018-11-28T23:13:37.007Z,6.78
2018-11-28T23:16:10.003Z,9.93
2018-11-28T23:18:40.366Z,10.27
2018-11-28T23:21:10.314Z,10.73
2018-11-28T23:23:39.019Z,9.95
2018-11-28T23:26:08.863Z,10.77
2018-11-28T23:28:36.716Z,11.57
2018-11-28T23:31:08.975Z,10.25
2018-11-28T23:33:37.086Z,8.77
2018-11-28T23:36:06.409Z,14.57
2018-11-28T23:38:37.972Z,10.43
2018-11-28T23:41:07.756Z,10.23
2018-11-28T23:43:38.443Z,11.02
2018-11-28T23:46:08.674Z,15.90
2018-11-28T23:48:36.458Z,12.32
2018-11-28T23:51:05.380Z,10.75
2018-11-28T23:53:33.320Z,12.45
2018-11-28T23:56:04.439Z,11.85
2018-11-28T23:58:34.832Z,14.93
